Overview Statistics Trail Chart Weather Telemetry Raw packets
 

This is the latest recevied weather packets stored in our database for station/object NR6G-5. If no packets are shown the sender has not sent any weather packets the latest 10 day(s).

<< 15 16 17 18 19 20 21 >>
Time Temp. Humidity Pressure Rain* Wind** Luminosity Snow
1777682080 31.67° C 27% 1008.1 hPa 0 mm - - -
1777681783 31.67° C 29% 1008.1 hPa 0 mm - - -
1777681485 31.67° C 34% 1008 hPa 0 mm - - -
1777680880 31.67° C 31% 1008.1 hPa 0 mm - - -
1777680580 31.67° C 32% 1008 hPa 0 mm - - -
1777680281 31.67° C 31% 1008.1 hPa 0 mm - - -
1777679981 31.67° C 31% 1008.1 hPa 0 mm - - -
1777679681 31.67° C 35% 1008.1 hPa 0 mm - - -
1777679380 31.67° C 33% 1008.2 hPa 0 mm - - -
1777679080 31.67° C 35% 1008.1 hPa 0 mm - - -
1777678783 31.67° C 34% 1008.1 hPa 0 mm - - -
1777678480 31.67° C 33% 1008.2 hPa 0 mm - - -
1777678114 31.67° C 32% 1008.2 hPa 0 mm - - -
1777677813 31.67° C 33% 1008.3 hPa 0 mm - - -
1777677513 31.67° C 33% 1008.3 hPa 0 mm - - -
1777677213 31.11° C 34% 1008.3 hPa 0 mm - - -
1777676913 31.11° C 33% 1008.3 hPa 0 mm - - -
1777676614 31.67° C 33% 1008.4 hPa 0 mm - - -
1777676314 31.67° C 33% 1008.5 hPa 0 mm - - -
1777675713 31.11° C 32% 1008.7 hPa 0 mm - - -
1777675415 31.67° C 32% 1008.7 hPa 0 mm - - -
1777675114 31.11° C 33% 1008.7 hPa 0 mm - - -
1777674813 31.11° C 32% 1008.9 hPa 0 mm - - -
1777674514 31.11° C 33% 1008.9 hPa 0 mm - - -
1777674214 31.11° C 33% 1009.1 hPa 0 mm - - -

* Rain latest hour (hover to see other rain measurements)
** Current wind speed in m/s (hover to see current wind gust speed)